Terminal Aerodrome Forecast
Issued by NWS Wakefield, VA

Home | Current Version | Previous Version | Text Only | Print | Product List | Glossary On
Versions: 1 2 3 4 5 6 7 8 9 10 11 12 13 14 15 16 17
000
FTUS41 KAKQ 231800 CCA
TAFORF
TAF COR
KORF 231856Z 2319/2418 05010KT P6SM VCSH FEW020 BKN045
      TEMPO 2319/2322 5SM -SHRA BR OVC020
     FM240000 07010KT P6SM SCT020 OVC025
     FM241400 05012G18KT P6SM SCT025 BKN030=

USA.gov is the U.S. government's official web portal to all federal, state and local government web resources and services.